createdAt,value
2023-02-20T00:01:18.775Z,2.40
2023-02-20T00:03:51.425Z,2.40
2023-02-20T00:06:23.062Z,2.70
2023-02-20T00:08:53.447Z,2.40
2023-02-20T00:11:24.845Z,2.42
2023-02-20T00:13:56.048Z,2.45
2023-02-20T00:16:28.301Z,2.67
2023-02-20T00:19:01.750Z,2.60
2023-02-20T00:21:44.109Z,2.58
2023-02-20T00:24:15.200Z,2.45
2023-02-20T00:26:50.358Z,2.45
2023-02-20T00:29:22.777Z,2.20
2023-02-20T00:31:58.341Z,2.70
2023-02-20T00:34:31.784Z,2.70
2023-02-20T00:37:03.190Z,2.60
2023-02-20T00:39:35.169Z,2.55
2023-02-20T00:42:07.263Z,2.60
2023-02-20T00:44:37.809Z,2.50
2023-02-20T00:47:08.770Z,2.47
2023-02-20T00:49:42.358Z,2.75
2023-02-20T00:52:14.847Z,2.53
2023-02-20T00:54:46.156Z,2.85
2023-02-20T00:57:17.599Z,2.58
2023-02-20T00:59:47.980Z,2.53
2023-02-20T01:02:19.684Z,2.33
2023-02-20T01:04:53.706Z,2.70
2023-02-20T01:07:25.577Z,2.75
2023-02-20T01:09:56.293Z,2.92
2023-02-20T01:12:28.619Z,3.30
2023-02-20T01:14:58.952Z,3.25
2023-02-20T01:17:29.936Z,3.45
2023-02-20T01:20:03.740Z,3.40
2023-02-20T01:22:34.551Z,3.33
2023-02-20T01:25:06.490Z,3.15
2023-02-20T01:27:36.705Z,3.17
2023-02-20T01:30:12.356Z,3.03
2023-02-20T01:32:42.839Z,3.33
2023-02-20T01:35:15.934Z,3.40
2023-02-20T01:37:46.554Z,3.53
2023-02-20T01:40:22.558Z,3.50
2023-02-20T01:42:54.266Z,3.60
2023-02-20T01:45:38.687Z,3.58
2023-02-20T01:48:10.696Z,3.45
2023-02-20T01:50:47.967Z,3.45
2023-02-20T01:53:25.120Z,3.20
2023-02-20T01:56:01.432Z,3.35
2023-02-20T01:58:38.212Z,3.78
2023-02-20T02:01:09.442Z,3.50
2023-02-20T02:03:45.297Z,3.35
2023-02-20T02:06:20.061Z,3.50
2023-02-20T02:08:51.498Z,3.28
2023-02-20T02:11:26.936Z,3.58
2023-02-20T02:13:58.540Z,3.38
2023-02-20T02:16:42.788Z,3.33
2023-02-20T02:19:38.344Z,3.47
2023-02-20T02:22:53.572Z,3.35
2023-02-20T02:25:50.571Z,3.33
2023-02-20T02:29:09.615Z,3.70
2023-02-20T02:32:26.546Z,3.33
2023-02-20T02:35:48.294Z,3.72
2023-02-20T02:38:29.143Z,3.53
2023-02-20T02:41:11.127Z,3.58
2023-02-20T02:43:54.054Z,3.85
2023-02-20T02:46:33.294Z,4.20
2023-02-20T02:49:14.740Z,3.92
2023-02-20T02:51:48.578Z,3.97
2023-02-20T02:54:29.770Z,4.38
2023-02-20T02:57:27.291Z,4.47
2023-02-20T03:00:04.202Z,4.00
2023-02-20T03:02:42.155Z,4.13
2023-02-20T03:05:22.275Z,4.05
2023-02-20T03:07:59.584Z,4.75
2023-02-20T03:10:34.449Z,4.68
2023-02-20T03:13:13.096Z,4.70
2023-02-20T03:15:50.248Z,4.70
2023-02-20T03:18:35.948Z,5.07
2023-02-20T03:21:16.736Z,4.88
2023-02-20T03:23:55.027Z,4.95
2023-02-20T03:26:37.912Z,4.90
2023-02-20T03:29:16.625Z,4.82
2023-02-20T03:32:06.917Z,4.93
2023-02-20T03:34:54.974Z,4.97
2023-02-20T03:37:47.311Z,4.57
2023-02-20T03:41:14.597Z,4.55
2023-02-20T03:43:50.800Z,4.80
2023-02-20T03:46:25.725Z,4.70
2023-02-20T03:49:15.621Z,5.00
2023-02-20T03:51:46.364Z,4.78
2023-02-20T03:54:17.256Z,4.88
2023-02-20T03:56:55.232Z,4.88
2023-02-20T03:59:32.949Z,4.78
2023-02-20T04:02:33.870Z,5.15
2023-02-20T04:05:10.786Z,4.80
2023-02-20T04:07:52.022Z,5.00
2023-02-20T04:10:28.212Z,4.72
2023-02-20T04:13:02.855Z,5.22
2023-02-20T04:15:40.219Z,4.80
2023-02-20T04:18:14.474Z,5.18
2023-02-20T04:20:46.256Z,4.65
2023-02-20T04:23:20.927Z,5.30
2023-02-20T04:25:58.438Z,5.15
2023-02-20T04:28:30.881Z,5.07
2023-02-20T04:31:02.993Z,5.22
2023-02-20T04:33:34.296Z,4.90
2023-02-20T04:36:05.032Z,5.32
2023-02-20T04:38:35.748Z,4.65
2023-02-20T04:41:06.936Z,5.05
2023-02-20T04:43:37.715Z,5.07
2023-02-20T04:46:10.424Z,5.10
2023-02-20T04:48:41.309Z,5.03
2023-02-20T04:51:13.189Z,5.03
2023-02-20T04:53:44.480Z,4.55
2023-02-20T04:56:16.047Z,5.20
2023-02-20T04:58:50.593Z,4.47
2023-02-20T05:01:23.679Z,4.80
2023-02-20T05:03:54.886Z,5.53
2023-02-20T05:06:26.651Z,5.20
2023-02-20T05:08:57.525Z,5.82
2023-02-20T05:11:28.769Z,5.80
2023-02-20T05:13:59.380Z,5.55
2023-02-20T05:16:33.400Z,5.43
2023-02-20T05:19:04.153Z,5.15
2023-02-20T05:21:52.469Z,5.35
2023-02-20T05:24:24.702Z,4.60
2023-02-20T05:26:56.989Z,5.13
2023-02-20T05:29:27.368Z,5.72
2023-02-20T05:32:00.342Z,4.88
2023-02-20T05:34:30.751Z,5.35
2023-02-20T05:37:01.254Z,5.20
2023-02-20T05:39:31.423Z,4.85
2023-02-20T05:42:02.457Z,4.78
2023-02-20T05:44:33.161Z,5.10
2023-02-20T05:47:08.130Z,4.97
2023-02-20T05:49:39.128Z,4.88
2023-02-20T05:52:12.171Z,5.25
2023-02-20T05:54:43.371Z,5.15
2023-02-20T05:57:15.418Z,5.93
2023-02-20T05:59:46.567Z,4.95
2023-02-20T06:02:19.516Z,5.07
2023-02-20T06:04:50.786Z,5.13
2023-02-20T06:07:21.830Z,4.88
2023-02-20T06:09:52.377Z,5.93
2023-02-20T06:12:23.481Z,5.35
2023-02-20T06:14:54.381Z,5.13
2023-02-20T06:17:27.237Z,5.63
2023-02-20T06:19:58.130Z,5.68
2023-02-20T06:22:28.679Z,5.13
2023-02-20T06:25:01.074Z,5.32
2023-02-20T06:27:31.941Z,5.38
2023-02-20T06:30:03.199Z,5.18
2023-02-20T06:32:35.583Z,5.28
2023-02-20T06:35:07.011Z,4.85
2023-02-20T06:37:37.564Z,4.68
2023-02-20T06:40:10.015Z,4.82
2023-02-20T06:42:44.150Z,4.75
2023-02-20T06:45:17.576Z,4.95
2023-02-20T06:47:49.801Z,5.43
2023-02-20T06:50:20.084Z,5.32
2023-02-20T06:52:51.076Z,5.00
2023-02-20T06:55:22.632Z,4.97
2023-02-20T06:57:53.531Z,5.45
2023-02-20T07:00:24.635Z,6.13
2023-02-20T07:02:57.812Z,5.78
2023-02-20T07:05:30.053Z,5.53
2023-02-20T07:08:00.736Z,4.60
2023-02-20T07:10:31.133Z,4.90
2023-02-20T07:13:03.958Z,5.80
2023-02-20T07:15:35.182Z,5.03
2023-02-20T07:18:08.620Z,5.72
2023-02-20T07:20:39.375Z,4.82
2023-02-20T07:23:09.645Z,6.40
2023-02-20T07:25:39.883Z,5.75
2023-02-20T07:28:10.659Z,5.53
2023-02-20T07:30:41.751Z,5.38
2023-02-20T07:33:14.235Z,5.28
2023-02-20T07:35:46.096Z,5.35
2023-02-20T07:38:17.620Z,5.25
2023-02-20T07:40:48.886Z,4.55
2023-02-20T07:43:19.255Z,4.47
2023-02-20T07:45:50.532Z,5.07
2023-02-20T07:48:22.983Z,5.35
2023-02-20T07:50:53.817Z,5.75
2023-02-20T07:53:25.218Z,5.43
2023-02-20T07:55:55.640Z,6.32
2023-02-20T07:58:26.581Z,5.68
2023-02-20T08:00:57.609Z,5.40
2023-02-20T08:03:29.500Z,4.90
2023-02-20T08:05:59.688Z,4.47
2023-02-20T08:08:30.033Z,4.75
2023-02-20T08:11:08.701Z,4.65
2023-02-20T08:13:41.409Z,4.68
2023-02-20T08:16:12.165Z,4.68
2023-02-20T08:18:44.758Z,4.95
2023-02-20T08:21:15.192Z,5.45
2023-02-20T08:23:45.864Z,5.93
2023-02-20T08:26:16.495Z,5.75
2023-02-20T08:28:47.155Z,5.47
2023-02-20T08:31:31.192Z,5.47
2023-02-20T08:34:04.391Z,4.88
2023-02-20T08:36:34.307Z,5.13
2023-02-20T08:39:05.343Z,4.40
2023-02-20T08:41:35.637Z,4.90
2023-02-20T08:44:06.408Z,5.07
2023-02-20T08:46:37.074Z,4.85
2023-02-20T08:49:09.107Z,4.82
2023-02-20T08:51:39.660Z,4.97
2023-02-20T08:54:09.855Z,5.50
2023-02-20T08:56:40.250Z,5.07
2023-02-20T08:59:11.043Z,5.13
2023-02-20T09:01:44.805Z,4.80
2023-02-20T09:04:17.627Z,4.30
2023-02-20T09:06:47.943Z,4.10
2023-02-20T09:09:18.832Z,4.32
2023-02-20T09:11:49.563Z,3.92
2023-02-20T09:14:20.684Z,3.58
2023-02-20T09:16:54.719Z,3.58
2023-02-20T09:19:27.564Z,3.58
2023-02-20T09:21:57.765Z,3.60
2023-02-20T09:24:32.425Z,3.63
2023-02-20T09:27:03.888Z,3.63
2023-02-20T09:29:34.352Z,3.38
2023-02-20T09:32:04.234Z,3.47
2023-02-20T09:34:36.483Z,3.40
2023-02-20T09:37:08.835Z,3.08
2023-02-20T09:39:39.313Z,3.65
2023-02-20T09:42:29.057Z,3.58
2023-02-20T09:45:12.292Z,3.75
2023-02-20T09:48:05.042Z,3.70
2023-02-20T09:50:45.854Z,4.07
2023-02-20T09:53:27.005Z,3.42
2023-02-20T09:55:59.312Z,3.53
2023-02-20T09:58:46.264Z,3.38
2023-02-20T10:01:23.164Z,3.45
2023-02-20T10:03:59.413Z,3.53
2023-02-20T10:06:33.806Z,3.28
2023-02-20T10:09:06.789Z,3.20
2023-02-20T10:12:09.432Z,3.13
2023-02-20T10:15:07.820Z,3.10
2023-02-20T10:17:51.914Z,3.20
2023-02-20T10:20:33.507Z,3.10
2023-02-20T10:23:21.542Z,3.53
2023-02-20T10:25:56.981Z,3.03
2023-02-20T10:28:28.546Z,3.05
2023-02-20T10:31:04.760Z,3.42
2023-02-20T10:33:42.906Z,2.95
2023-02-20T10:36:21.536Z,3.60
2023-02-20T10:39:03.234Z,3.47
2023-02-20T10:41:40.671Z,3.20
2023-02-20T10:44:21.836Z,3.22
2023-02-20T10:47:03.392Z,3.47
2023-02-20T10:49:44.578Z,3.17
2023-02-20T10:52:33.979Z,3.25
2023-02-20T10:55:15.562Z,3.15
2023-02-20T10:57:52.862Z,2.88
2023-02-20T11:00:29.714Z,3.00
2023-02-20T11:03:09.586Z,2.95
2023-02-20T11:05:49.288Z,2.88
2023-02-20T11:08:22.046Z,2.67
2023-02-20T11:11:01.513Z,2.47
2023-02-20T11:13:31.988Z,2.33
2023-02-20T11:16:04.096Z,2.80
2023-02-20T11:18:40.912Z,2.90
2023-02-20T11:21:11.039Z,2.75
2023-02-20T11:23:45.131Z,2.70
2023-02-20T11:26:45.025Z,2.53
2023-02-20T11:29:20.789Z,2.38
2023-02-20T11:31:50.705Z,2.30
2023-02-20T11:34:25.481Z,2.25
2023-02-20T11:36:59.085Z,2.30
2023-02-20T11:39:32.293Z,2.35
2023-02-20T11:42:19.614Z,2.35
2023-02-20T11:45:15.593Z,2.17
2023-02-20T11:47:47.115Z,2.13
2023-02-20T11:50:22.150Z,2.05
2023-02-20T11:53:07.788Z,2.42
2023-02-20T11:55:38.347Z,2.20
2023-02-20T11:58:25.007Z,2.15
2023-02-20T12:00:56.939Z,2.00
2023-02-20T12:03:30.660Z,2.00
2023-02-20T12:06:02.553Z,1.90
2023-02-20T12:08:55.588Z,2.25
2023-02-20T12:11:29.522Z,2.03
2023-02-20T12:14:03.374Z,2.13
2023-02-20T12:17:04.954Z,1.92
2023-02-20T12:19:55.327Z,2.08
2023-02-20T12:22:36.208Z,1.88
2023-02-20T12:25:24.689Z,1.80
2023-02-20T12:28:11.434Z,1.75
2023-02-20T12:31:04.781Z,1.83
2023-02-20T12:34:00.964Z,1.60
2023-02-20T12:36:38.890Z,1.55
2023-02-20T12:39:25.940Z,1.70
2023-02-20T12:42:15.372Z,1.60
2023-02-20T12:45:06.372Z,1.60
2023-02-20T12:47:44.365Z,1.70
2023-02-20T12:50:49.558Z,1.50
2023-02-20T12:53:41.864Z,1.65
2023-02-20T12:56:32.473Z,1.60
2023-02-20T12:59:19.292Z,1.52
2023-02-20T13:01:51.991Z,1.70
2023-02-20T13:04:35.036Z,1.55
2023-02-20T13:07:16.769Z,1.55
2023-02-20T13:10:02.540Z,1.50
2023-02-20T13:12:33.035Z,1.55
2023-02-20T13:15:27.511Z,1.40
2023-02-20T13:18:06.910Z,1.50
2023-02-20T13:20:48.356Z,1.48
2023-02-20T13:23:36.067Z,1.58
2023-02-20T13:26:46.187Z,1.50
2023-02-20T13:29:23.079Z,1.35
2023-02-20T13:31:57.208Z,1.50
2023-02-20T13:34:35.682Z,1.42
2023-02-20T13:37:57.794Z,1.45
2023-02-20T13:40:48.768Z,1.52
2023-02-20T13:43:36.739Z,1.38
2023-02-20T13:46:27.270Z,1.40
2023-02-20T13:48:59.243Z,1.10
2023-02-20T13:51:39.198Z,1.52
2023-02-20T13:54:31.859Z,1.50
2023-02-20T13:57:17.184Z,1.33
2023-02-20T13:59:52.245Z,1.40
2023-02-20T14:02:31.042Z,1.33
2023-02-20T14:05:07.377Z,1.08
2023-02-20T14:07:42.438Z,1.17
2023-02-20T14:10:29.412Z,1.20
2023-02-20T14:13:05.490Z,1.30
2023-02-20T14:15:47.794Z,1.20
2023-02-20T14:18:23.241Z,1.30
2023-02-20T14:21:01.207Z,1.30
2023-02-20T14:23:34.334Z,1.45
2023-02-20T14:26:20.713Z,1.30
2023-02-20T14:28:55.249Z,1.17
2023-02-20T14:31:28.444Z,1.40
2023-02-20T14:34:02.415Z,1.30
2023-02-20T14:36:57.877Z,1.40
2023-02-20T14:39:50.861Z,1.40
2023-02-20T14:42:27.417Z,1.20
2023-02-20T14:45:03.595Z,1.42
2023-02-20T14:47:38.016Z,1.25
2023-02-20T14:50:21.779Z,1.27
2023-02-20T14:53:05.690Z,1.25
2023-02-20T14:55:41.217Z,1.20
2023-02-20T14:58:21.004Z,1.20
2023-02-20T15:00:54.301Z,0.90
2023-02-20T15:03:31.397Z,1.33
2023-02-20T15:06:07.142Z,1.27
2023-02-20T15:08:39.719Z,1.02
2023-02-20T15:11:13.297Z,1.10
2023-02-20T15:13:50.675Z,1.30
2023-02-20T15:16:28.297Z,1.23
2023-02-20T15:18:59.951Z,1.30
2023-02-20T15:21:43.749Z,1.40
2023-02-20T15:24:43.131Z,1.00
2023-02-20T15:27:18.334Z,1.23
2023-02-20T15:29:51.678Z,1.00
2023-02-20T15:32:26.514Z,1.40
2023-02-20T15:34:59.309Z,1.33
2023-02-20T15:37:43.159Z,1.20
2023-02-20T15:40:26.066Z,1.40
2023-02-20T15:42:58.456Z,1.05
2023-02-20T15:45:33.620Z,1.20
2023-02-20T15:48:04.427Z,1.05
2023-02-20T15:50:35.138Z,1.00
2023-02-20T15:53:08.347Z,1.05
2023-02-20T15:55:39.760Z,1.00
2023-02-20T15:58:27.175Z,1.20
2023-02-20T16:01:02.022Z,1.30
2023-02-20T16:03:51.014Z,1.10
2023-02-20T16:06:22.839Z,1.27
2023-02-20T16:08:55.378Z,1.10
2023-02-20T16:11:39.715Z,1.10
2023-02-20T16:14:11.140Z,1.10
2023-02-20T16:16:49.462Z,1.00
2023-02-20T16:19:33.431Z,1.25
2023-02-20T16:22:13.419Z,1.05
2023-02-20T16:24:44.992Z,1.38
2023-02-20T16:27:25.818Z,1.20
2023-02-20T16:29:58.318Z,1.08
2023-02-20T16:32:33.875Z,1.00
2023-02-20T16:35:04.736Z,1.30
2023-02-20T16:37:35.723Z,1.00
2023-02-20T16:40:07.237Z,1.10
2023-02-20T16:42:40.604Z,1.40
2023-02-20T16:45:18.962Z,1.00
2023-02-20T16:47:55.825Z,0.90
2023-02-20T16:50:30.600Z,0.77
2023-02-20T16:53:03.679Z,1.00
2023-02-20T16:55:39.419Z,0.82
2023-02-20T16:58:10.068Z,1.10
2023-02-20T17:00:55.173Z,1.00
2023-02-20T17:03:30.243Z,0.80
2023-02-20T17:06:00.328Z,1.02
2023-02-20T17:08:30.547Z,1.00
2023-02-20T17:11:00.863Z,0.85
2023-02-20T17:13:31.756Z,1.10
2023-02-20T17:16:02.943Z,0.95
2023-02-20T17:18:35.844Z,1.10
2023-02-20T17:21:06.237Z,1.08
2023-02-20T17:23:37.111Z,1.10
2023-02-20T17:26:07.978Z,0.98
2023-02-20T17:28:38.749Z,1.17
2023-02-20T17:31:09.518Z,1.08
2023-02-20T17:33:43.590Z,0.90
2023-02-20T17:36:15.241Z,1.10
2023-02-20T17:38:48.035Z,1.10
2023-02-20T17:41:19.878Z,0.93
2023-02-20T17:43:52.176Z,1.05
2023-02-20T17:46:23.367Z,1.00
2023-02-20T17:48:56.040Z,0.90
2023-02-20T17:51:26.765Z,1.00
2023-02-20T17:53:57.594Z,1.10
2023-02-20T17:56:28.177Z,1.10
2023-02-20T17:58:58.356Z,1.08
2023-02-20T18:01:29.536Z,1.10
2023-02-20T18:04:01.989Z,1.00
2023-02-20T18:06:32.727Z,1.17
2023-02-20T18:09:03.220Z,0.95
2023-02-20T18:11:34.208Z,1.15
2023-02-20T18:14:06.383Z,1.00
2023-02-20T18:16:39.336Z,1.20
2023-02-20T18:19:16.842Z,1.10
2023-02-20T18:21:50.802Z,1.00
2023-02-20T18:24:24.745Z,1.13
2023-02-20T18:26:57.526Z,1.00
2023-02-20T18:29:30.199Z,1.02
2023-02-20T18:32:01.958Z,0.93
2023-02-20T18:34:36.757Z,1.15
2023-02-20T18:37:07.560Z,1.00
2023-02-20T18:39:38.923Z,1.17
2023-02-20T18:42:09.685Z,1.15
2023-02-20T18:44:41.079Z,1.17
2023-02-20T18:47:12.086Z,1.23
2023-02-20T18:49:44.691Z,1.23
2023-02-20T18:52:14.824Z,1.20
2023-02-20T18:54:44.982Z,0.90
2023-02-20T18:57:15.478Z,1.10
2023-02-20T18:59:47.258Z,1.38
2023-02-20T19:02:18.845Z,1.30
2023-02-20T19:04:52.367Z,1.23
2023-02-20T19:07:22.285Z,1.30
2023-02-20T19:09:56.708Z,1.40
2023-02-20T19:12:27.739Z,1.20
2023-02-20T19:14:59.019Z,1.35
2023-02-20T19:17:30.161Z,1.00
2023-02-20T19:20:03.124Z,1.20
2023-02-20T19:22:34.462Z,1.10
2023-02-20T19:25:05.689Z,1.35
2023-02-20T19:27:45.828Z,1.10
2023-02-20T19:30:19.051Z,1.15
2023-02-20T19:32:49.797Z,1.20
2023-02-20T19:35:23.882Z,0.85
2023-02-20T19:37:54.738Z,1.13
2023-02-20T19:40:26.334Z,1.27
2023-02-20T19:42:57.339Z,1.38
2023-02-20T19:45:28.005Z,1.23
2023-02-20T19:47:58.969Z,1.30
2023-02-20T19:50:32.013Z,1.15
2023-02-20T19:53:03.448Z,1.20
2023-02-20T19:55:34.665Z,1.02
2023-02-20T19:58:09.506Z,1.25
2023-02-20T20:00:40.507Z,1.20
2023-02-20T20:03:11.710Z,1.08
2023-02-20T20:05:44.511Z,1.02
2023-02-20T20:08:15.577Z,1.50
2023-02-20T20:10:46.248Z,1.40
2023-02-20T20:13:16.692Z,1.10
2023-02-20T20:15:48.126Z,1.15
2023-02-20T20:18:18.851Z,1.27
2023-02-20T20:20:52.706Z,1.40
2023-02-20T20:23:23.720Z,1.15
2023-02-20T20:25:54.279Z,0.90
2023-02-20T20:28:24.842Z,1.08
2023-02-20T20:30:56.569Z,1.15
2023-02-20T20:33:27.305Z,1.10
2023-02-20T20:36:00.181Z,1.10
2023-02-20T20:38:31.450Z,1.27
2023-02-20T20:41:02.340Z,1.17
2023-02-20T20:43:33.003Z,1.20
2023-02-20T20:46:04.183Z,1.13
2023-02-20T20:48:34.962Z,1.20
2023-02-20T20:51:07.435Z,1.20
2023-02-20T20:53:38.342Z,1.20
2023-02-20T20:56:10.467Z,1.10
2023-02-20T20:58:40.925Z,1.30
2023-02-20T21:01:11.529Z,1.30
2023-02-20T21:03:42.711Z,1.20
2023-02-20T21:06:16.123Z,1.20
2023-02-20T21:08:47.231Z,0.98
2023-02-20T21:11:17.983Z,1.10
2023-02-20T21:13:50.575Z,1.10
2023-02-20T21:16:22.003Z,1.20
2023-02-20T21:18:52.188Z,1.15
2023-02-20T21:21:28.683Z,1.02
2023-02-20T21:24:01.540Z,1.05
2023-02-20T21:26:32.577Z,1.20
2023-02-20T21:29:03.781Z,1.08
2023-02-20T21:31:35.261Z,1.05
2023-02-20T21:34:07.275Z,1.27
2023-02-20T21:36:39.673Z,1.20
2023-02-20T21:39:10.219Z,1.08
2023-02-20T21:41:57.459Z,1.25
2023-02-20T21:44:29.999Z,1.08
2023-02-20T21:47:03.170Z,1.00
2023-02-20T21:49:37.507Z,0.93
2023-02-20T21:52:10.756Z,0.93
2023-02-20T21:54:44.034Z,0.95
2023-02-20T21:57:15.062Z,1.10
2023-02-20T21:59:43.532Z,1.00
2023-02-20T22:02:18.425Z,1.15
2023-02-20T22:04:47.476Z,1.13
2023-02-20T22:07:39.570Z,1.17
2023-02-20T22:10:29.588Z,1.30
2023-02-20T22:13:16.564Z,1.05
2023-02-20T22:16:05.173Z,1.13
2023-02-20T22:18:52.542Z,1.00
2023-02-20T22:21:41.787Z,1.00
2023-02-20T22:24:39.734Z,1.30
2023-02-20T22:27:28.699Z,1.10
2023-02-20T22:30:16.040Z,1.08
2023-02-20T22:33:03.536Z,1.10
2023-02-20T22:35:50.878Z,0.98
2023-02-20T22:38:39.025Z,1.00
2023-02-20T22:41:28.111Z,1.10
2023-02-20T22:44:15.378Z,1.02
2023-02-20T22:47:02.734Z,1.08
2023-02-20T22:49:50.135Z,1.08
2023-02-20T22:52:39.519Z,0.77
2023-02-20T22:55:26.545Z,0.80
2023-02-20T22:58:15.595Z,0.88
2023-02-20T23:01:03.040Z,0.93
2023-02-20T23:03:50.400Z,1.00
2023-02-20T23:06:40.796Z,1.02
2023-02-20T23:09:28.758Z,0.90
2023-02-20T23:12:16.492Z,0.98
2023-02-20T23:15:05.663Z,0.88
2023-02-20T23:17:53.067Z,0.90
2023-02-20T23:20:43.113Z,0.98
2023-02-20T23:23:32.353Z,0.80
2023-02-20T23:26:22.584Z,0.75
2023-02-20T23:29:09.875Z,1.00
2023-02-20T23:32:02.218Z,0.93
2023-02-20T23:34:50.420Z,0.70
2023-02-20T23:37:37.708Z,0.60
2023-02-20T23:40:35.966Z,0.82
2023-02-20T23:43:25.556Z,0.80
2023-02-20T23:46:13.703Z,0.75
2023-02-20T23:49:04.021Z,0.50
2023-02-20T23:51:53.143Z,0.85
2023-02-20T23:54:40.880Z,0.63
2023-02-20T23:57:28.033Z,0.80
